Time;durP1;ratioP1;P1;durP2;ratioP2;P2;SDS_P1;SDS_P2;PMS_P1;PMS_P2;Temp;Humidity;BMP_temperature;BMP_pressure;BME280_temperature;BME280_humidity;BME280_pressure;Samples;Min_cycle;Max_cycle;Signal;HPM_P1;HPM_P2
2021/09/24 00:01:44;;;;;;;4.75;1.33;;;13.50;99.90;;;;;;5044741;28;20197;-67
2021/09/24 00:04:12;;;;;;;5.78;1.50;;;13.50;99.90;;;;;;5035350;28;20182;-68
2021/09/24 00:06:39;;;;;;;6.90;1.45;;;13.40;99.90;;;;;;5045537;28;20196;-68
2021/09/24 00:09:05;;;;;;;5.18;1.30;;;13.40;99.90;;;;;;5047236;28;20174;-70
2021/09/24 00:11:30;;;;;;;8.95;1.40;;;13.30;99.90;;;;;;5044261;28;20645;-69
2021/09/24 00:13:56;;;;;;;4.53;1.10;;;13.30;99.90;;;;;;5045321;28;20280;-66
2021/09/24 00:16:22;;;;;;;6.30;1.60;;;13.20;99.90;;;;;;5027122;28;20175;-67
2021/09/24 00:18:47;;;;;;;7.22;1.45;;;13.20;99.90;;;;;;5027297;28;20185;-67
2021/09/24 00:21:13;;;;;;;5.18;1.23;;;13.10;99.90;;;;;;5047605;28;20244;-68
2021/09/24 00:23:39;;;;;;;6.18;1.75;;;13.10;99.90;;;;;;5044175;28;20182;-68
2021/09/24 00:26:05;;;;;;;5.38;1.48;;;13.10;99.90;;;;;;5048804;28;20190;-65
2021/09/24 00:28:30;;;;;;;7.60;1.70;;;13.20;99.90;;;;;;5044927;28;20181;-68
2021/09/24 00:30:56;;;;;;;7.97;1.90;;;13.20;99.90;;;;;;5044560;28;20292;-68
2021/09/24 00:33:21;;;;;;;5.25;2.00;;;13.20;99.90;;;;;;5045837;28;20550;-70
2021/09/24 00:35:47;;;;;;;7.90;1.70;;;13.20;99.90;;;;;;5044784;28;20223;-71
2021/09/24 00:38:13;;;;;;;6.90;2.00;;;13.10;99.90;;;;;;5047786;28;20223;-66
2021/09/24 00:40:38;;;;;;;4.80;1.60;;;13.10;99.90;;;;;;5026769;28;20210;-69
2021/09/24 00:43:04;;;;;;;7.10;2.03;;;13.30;99.90;;;;;;5043837;28;20195;-70
2021/09/24 00:45:30;;;;;;;9.85;1.98;;;13.30;99.90;;;;;;5044800;28;20186;-66
2021/09/24 00:47:55;;;;;;;5.57;1.42;;;13.30;99.90;;;;;;5048145;28;20672;-65
2021/09/24 00:50:21;;;;;;;5.03;1.65;;;13.40;99.90;;;;;;5045077;28;20288;-70
2021/09/24 00:52:52;;;;;;;5.78;2.03;;;13.30;99.90;;;;;;5050298;28;20181;-68
2021/09/24 00:55:18;;;;;;;7.57;2.10;;;13.30;99.90;;;;;;5049956;28;20181;-68
2021/09/24 00:57:44;;;;;;;7.93;2.25;;;13.20;99.90;;;;;;5044440;28;20545;-69
2021/09/24 01:00:10;;;;;;;4.82;1.92;;;13.10;99.90;;;;;;5044310;28;20664;-69
2021/09/24 01:02:36;;;;;;;3.75;1.77;;;13.00;99.90;;;;;;5051967;28;20226;-67
2021/09/24 01:05:02;;;;;;;5.10;2.10;;;13.00;99.90;;;;;;5044263;28;20201;-68
2021/09/24 01:07:29;;;;;;;5.68;1.90;;;12.90;99.90;;;;;;5044437;28;20178;-69
2021/09/24 01:09:55;;;;;;;6.13;1.63;;;12.90;99.90;;;;;;5049258;28;20588;-67
2021/09/24 01:12:21;;;;;;;6.88;2.05;;;12.80;99.90;;;;;;5047554;28;20222;-70
2021/09/24 01:14:57;;;;;;;5.25;1.80;;;12.80;99.90;;;;;;5044190;28;20221;-68
2021/09/24 01:17:23;;;;;;;6.75;1.98;;;12.70;99.90;;;;;;5051257;28;20575;-68
2021/09/24 01:19:48;;;;;;;5.68;1.90;;;12.80;99.90;;;;;;5043722;28;20186;-69
2021/09/24 01:22:14;;;;;;;5.68;2.10;;;12.80;99.90;;;;;;5048482;28;20206;-68
2021/09/24 01:24:40;;;;;;;5.10;2.15;;;12.80;99.90;;;;;;5043856;28;20182;-66
2021/09/24 01:27:05;;;;;;;7.07;2.05;;;12.80;99.90;;;;;;5043976;28;20196;-65
2021/09/24 01:29:31;;;;;;;8.07;2.10;;;12.80;99.90;;;;;;5043692;28;20745;-67
2021/09/24 01:31:57;;;;;;;6.55;2.95;;;12.80;99.90;;;;;;5042939;28;20630;-68
2021/09/24 01:34:23;;;;;;;10.05;2.40;;;12.70;99.90;;;;;;5028630;28;20276;-73
2021/09/24 01:36:49;;;;;;;6.32;2.15;;;12.60;99.90;;;;;;5048524;28;20265;-66
2021/09/24 01:39:14;;;;;;;6.82;2.40;;;12.60;99.90;;;;;;5048946;28;20189;-69
2021/09/24 01:41:42;;;;;;;5.93;2.03;;;12.60;99.90;;;;;;5042550;28;20233;-66
2021/09/24 01:44:08;;;;;;;8.52;2.10;;;12.70;99.90;;;;;;5046187;28;20178;-66
2021/09/24 01:46:42;;;;;;;6.00;1.77;;;12.60;99.90;;;;;;5049842;28;20668;-67
2021/09/24 01:49:08;;;;;;;10.43;2.35;;;12.60;99.90;;;;;;5054459;28;20563;-66
2021/09/24 01:51:36;;;;;;;4.57;1.67;;;12.60;99.90;;;;;;5024864;28;20400;-68
2021/09/24 01:54:02;;;;;;;6.05;2.00;;;12.50;99.90;;;;;;5043327;28;20181;-68
2021/09/24 01:56:28;;;;;;;7.43;1.90;;;12.40;99.90;;;;;;5045157;28;20194;-68
2021/09/24 01:58:54;;;;;;;13.55;2.17;;;12.30;99.90;;;;;;5051323;28;20182;-68
2021/09/24 02:01:19;;;;;;;6.78;2.22;;;12.30;99.90;;;;;;5051066;28;20289;-68
2021/09/24 02:03:45;;;;;;;8.38;2.17;;;12.30;99.90;;;;;;5048746;28;20520;-69
2021/09/24 02:06:11;;;;;;;12.20;2.30;;;12.30;99.90;;;;;;5043341;28;20235;-68
2021/09/24 02:08:37;;;;;;;7.15;2.33;;;12.20;99.90;;;;;;5046362;28;20174;-67
2021/09/24 02:11:02;;;;;;;7.38;2.28;;;12.20;99.90;;;;;;5043177;28;21032;-68
2021/09/24 02:13:28;;;;;;;9.15;2.08;;;12.20;99.90;;;;;;5024845;28;20209;-69
2021/09/24 02:15:53;;;;;;;6.57;2.38;;;12.30;99.90;;;;;;5042936;28;20642;-67
2021/09/24 02:18:20;;;;;;;3.95;2.00;;;12.40;99.90;;;;;;5043526;28;20182;-68
2021/09/24 02:20:46;;;;;;;10.63;2.33;;;12.50;99.90;;;;;;5043210;28;20900;-69
2021/09/24 02:23:12;;;;;;;6.38;1.60;;;12.60;99.90;;;;;;5042424;28;20265;-67
2021/09/24 02:25:37;;;;;;;7.47;2.00;;;12.60;99.90;;;;;;5050068;28;20273;-68
2021/09/24 02:28:03;;;;;;;7.43;1.98;;;12.60;99.90;;;;;;5043112;28;20186;-66
2021/09/24 02:30:29;;;;;;;10.05;1.73;;;12.60;99.90;;;;;;5047708;28;20297;-69
2021/09/24 02:32:54;;;;;;;9.63;2.10;;;12.50;99.90;;;;;;5042369;28;20182;-68
2021/09/24 02:35:20;;;;;;;3.42;1.55;;;12.40;99.90;;;;;;5048691;28;20240;-67
2021/09/24 02:37:46;;;;;;;9.73;2.17;;;12.40;99.90;;;;;;5047417;28;20183;-70
2021/09/24 02:40:11;;;;;;;3.65;2.10;;;12.30;99.90;;;;;;5044998;28;20185;-66
2021/09/24 02:42:37;;;;;;;8.15;2.10;;;12.30;99.90;;;;;;5043597;28;20264;-65
2021/09/24 02:45:04;;;;;;;6.97;2.08;;;12.20;99.90;;;;;;5049647;28;20551;-69
2021/09/24 02:47:29;;;;;;;6.90;2.47;;;12.20;99.90;;;;;;5043065;28;20256;-69
2021/09/24 02:49:55;;;;;;;8.70;1.90;;;12.20;99.90;;;;;;5042795;28;21397;-66
2021/09/24 02:52:21;;;;;;;7.78;1.80;;;12.10;99.90;;;;;;5026716;28;20194;-70
2021/09/24 02:54:46;;;;;;;13.70;2.60;;;12.10;99.90;;;;;;5028879;28;20178;-66
2021/09/24 02:57:12;;;;;;;5.63;1.55;;;12.00;99.90;;;;;;5050164;28;20661;-68
2021/09/24 02:59:37;;;;;;;6.93;2.17;;;12.10;99.90;;;;;;5048853;28;20200;-68
2021/09/24 03:02:03;;;;;;;3.83;1.95;;;12.10;99.90;;;;;;5045910;28;20201;-69
2021/09/24 03:04:29;;;;;;;10.20;2.88;;;12.10;99.90;;;;;;5046467;28;20599;-68
2021/09/24 03:06:54;;;;;;;7.30;2.13;;;12.20;99.90;;;;;;5058055;28;20181;-71
2021/09/24 03:09:20;;;;;;;5.88;1.63;;;12.30;99.90;;;;;;5029472;28;20190;-69
2021/09/24 03:11:46;;;;;;;7.25;1.45;;;12.30;99.90;;;;;;5048987;28;20931;-67
2021/09/24 03:14:11;;;;;;;6.82;1.70;;;12.30;99.90;;;;;;5032920;28;20240;-67
2021/09/24 03:16:37;;;;;;;6.57;1.50;;;12.40;99.90;;;;;;5053873;28;20182;-69
2021/09/24 03:19:05;;;;;;;5.15;1.35;;;12.40;99.90;;;;;;5051653;28;20205;-68
2021/09/24 03:21:30;;;;;;;9.57;2.00;;;12.50;99.90;;;;;;5057088;28;20289;-69
2021/09/24 03:23:56;;;;;;;4.40;1.85;;;12.50;99.90;;;;;;5028272;28;20332;-67
2021/09/24 03:26:22;;;;;;;5.20;1.77;;;12.50;99.90;;;;;;5027988;28;20677;-67
2021/09/24 03:28:48;;;;;;;6.70;1.75;;;12.60;99.90;;;;;;5046081;28;20979;-69
2021/09/24 03:31:15;;;;;;;5.30;1.40;;;12.50;99.90;;;;;;5045499;28;20218;-68
2021/09/24 03:33:41;;;;;;;6.63;1.80;;;12.60;99.90;;;;;;5045337;28;20178;-71
2021/09/24 03:36:07;;;;;;;6.32;1.65;;;12.60;99.90;;;;;;5048001;28;20231;-68
2021/09/24 03:38:32;;;;;;;4.32;1.40;;;12.60;99.90;;;;;;5048630;28;20186;-69
2021/09/24 03:40:58;;;;;;;6.47;1.80;;;12.70;99.90;;;;;;5049395;28;20202;-68
2021/09/24 03:43:24;;;;;;;3.42;1.25;;;12.70;99.90;;;;;;5049196;28;20189;-69
2021/09/24 03:45:50;;;;;;;7.32;2.05;;;12.80;99.90;;;;;;5045840;28;20186;-68
2021/09/24 03:48:16;;;;;;;5.75;1.48;;;12.80;99.90;;;;;;5045730;28;20194;-66
2021/09/24 03:50:42;;;;;;;6.82;1.73;;;12.80;99.90;;;;;;5045385;28;20275;-70
2021/09/24 03:53:07;;;;;;;6.35;1.60;;;12.80;99.90;;;;;;5044947;28;20178;-67
2021/09/24 03:55:33;;;;;;;7.55;1.60;;;12.70;99.90;;;;;;5045573;28;20642;-67
2021/09/24 03:57:58;;;;;;;7.53;1.50;;;12.70;99.90;;;;;;5045589;28;20646;-66
2021/09/24 04:00:24;;;;;;;9.50;1.85;;;12.60;99.90;;;;;;5046783;28;20294;-69
2021/09/24 04:02:50;;;;;;;6.18;1.92;;;12.60;99.90;;;;;;5053799;28;20179;-69
2021/09/24 04:05:16;;;;;;;8.88;1.77;;;12.70;99.90;;;;;;5045057;28;20193;-69
2021/09/24 04:07:41;;;;;;;6.53;2.05;;;12.60;99.90;;;;;;5047140;28;20183;-68
2021/09/24 04:10:07;;;;;;;4.95;1.60;;;12.60;99.90;;;;;;5053728;28;20662;-68
2021/09/24 04:12:33;;;;;;;8.25;1.63;;;12.60;99.90;;;;;;5045029;28;20206;-69
2021/09/24 04:14:59;;;;;;;7.22;1.60;;;12.50;99.90;;;;;;5055981;28;20175;-67
2021/09/24 04:17:24;;;;;;;5.85;1.55;;;12.40;99.90;;;;;;5047528;28;20193;-69
2021/09/24 04:19:50;;;;;;;8.88;2.30;;;12.40;99.90;;;;;;5058828;28;20186;-69
2021/09/24 04:22:16;;;;;;;9.75;2.40;;;12.30;99.90;;;;;;5053307;28;20245;-67
2021/09/24 04:24:41;;;;;;;3.80;1.33;;;12.30;99.90;;;;;;5051776;28;20508;-70
2021/09/24 04:27:07;;;;;;;7.55;1.55;;;12.20;99.90;;;;;;5052427;28;20190;-68
2021/09/24 04:29:33;;;;;;;6.88;1.48;;;12.30;99.90;;;;;;5029605;28;20555;-70
2021/09/24 04:31:58;;;;;;;4.85;1.50;;;12.30;99.90;;;;;;5046700;28;20218;-68
2021/09/24 04:34:24;;;;;;;4.82;1.70;;;12.20;99.90;;;;;;5037406;28;20249;-69
2021/09/24 04:36:50;;;;;;;10.35;2.25;;;12.30;99.90;;;;;;5027161;28;20265;-67
2021/09/24 04:39:15;;;;;;;7.10;2.10;;;12.20;99.90;;;;;;5047953;28;20186;-69
2021/09/24 04:41:41;;;;;;;6.03;2.17;;;12.30;99.90;;;;;;5046089;28;20276;-66
2021/09/24 04:44:07;;;;;;;4.32;1.50;;;12.30;99.90;;;;;;5044748;28;20182;-68
2021/09/24 04:46:32;;;;;;;8.82;2.33;;;12.30;99.90;;;;;;5029611;28;20189;-68
2021/09/24 04:48:58;;;;;;;5.05;1.65;;;12.40;99.90;;;;;;5044577;28;20188;-68
2021/09/24 04:51:24;;;;;;;6.63;1.75;;;12.50;99.90;;;;;;5043377;28;20214;-68
2021/09/24 04:53:50;;;;;;;5.28;1.65;;;12.40;99.90;;;;;;5044165;28;20719;-70
2021/09/24 04:56:16;;;;;;;7.85;2.00;;;12.50;99.90;;;;;;5045264;28;20268;-67
2021/09/24 04:58:42;;;;;;;7.47;2.00;;;12.40;99.90;;;;;;5055140;28;20398;-69
2021/09/24 05:01:08;;;;;;;9.65;2.45;;;12.30;99.90;;;;;;5052056;28;20243;-66
2021/09/24 05:03:34;;;;;;;6.65;2.17;;;12.10;99.90;;;;;;5044941;28;20186;-66
2021/09/24 05:05:59;;;;;;;6.53;1.90;;;12.00;99.90;;;;;;5045390;28;20277;-69
2021/09/24 05:08:25;;;;;;;7.50;3.63;;;12.00;99.90;;;;;;5044196;28;20182;-68
2021/09/24 05:10:50;;;;;;;23.00;8.63;;;11.90;99.90;;;;;;5043634;28;20214;-68
2021/09/24 05:13:16;;;;;;;14.20;6.93;;;11.90;99.90;;;;;;5043647;28;20308;-69
2021/09/24 05:15:42;;;;;;;11.05;5.78;;;11.80;99.90;;;;;;5043218;28;20625;-69
2021/09/24 05:18:07;;;;;;;7.45;3.75;;;11.70;99.90;;;;;;5044084;28;20177;-67
2021/09/24 05:20:34;;;;;;;6.18;3.20;;;11.60;99.90;;;;;;5052665;28;20201;-67
2021/09/24 05:22:59;;;;;;;8.95;3.30;;;11.70;99.90;;;;;;5047168;28;20210;-69
2021/09/24 05:25:25;;;;;;;6.93;3.30;;;11.60;99.90;;;;;;5043615;28;20214;-69
2021/09/24 05:27:52;;;;;;;5.50;2.97;;;11.60;99.90;;;;;;5043812;28;20178;-69
2021/09/24 05:30:18;;;;;;;5.07;2.70;;;11.70;99.90;;;;;;5050633;28;20266;-69
2021/09/24 05:32:44;;;;;;;4.00;2.30;;;11.80;99.90;;;;;;5041609;28;20173;-68
2021/09/24 05:35:10;;;;;;;7.72;2.70;;;11.70;99.90;;;;;;5026185;28;20192;-67
2021/09/24 05:37:37;;;;;;;6.22;2.20;;;11.80;99.90;;;;;;5043107;28;20205;-67
2021/09/24 05:40:04;;;;;;;6.65;2.35;;;11.80;99.90;;;;;;5050582;28;20278;-68
2021/09/24 05:42:30;;;;;;;4.70;2.40;;;11.90;99.90;;;;;;5044081;28;20190;-69
2021/09/24 05:44:56;;;;;;;6.82;2.17;;;12.00;99.90;;;;;;5045201;28;20196;-66
2021/09/24 05:47:22;;;;;;;5.05;2.45;;;12.10;99.90;;;;;;5046066;28;20185;-72
2021/09/24 05:49:47;;;;;;;2.95;2.10;;;12.20;99.90;;;;;;5043896;28;20714;-68
2021/09/24 05:52:13;;;;;;;3.88;2.05;;;12.30;99.90;;;;;;5050839;28;20307;-66
2021/09/24 05:54:39;;;;;;;4.00;2.28;;;12.40;99.90;;;;;;5046482;28;20640;-70
2021/09/24 05:57:04;;;;;;;5.95;2.10;;;12.50;99.90;;;;;;5045346;28;20209;-69
2021/09/24 05:59:30;;;;;;;5.25;1.95;;;12.60;99.90;;;;;;5029448;28;20579;-69
2021/09/24 06:01:56;;;;;;;6.93;2.00;;;12.60;99.90;;;;;;5053361;28;20203;-68
2021/09/24 06:04:21;;;;;;;3.75;1.75;;;12.60;99.90;;;;;;5043390;28;20186;-69
2021/09/24 06:06:47;;;;;;;4.22;1.92;;;12.60;99.90;;;;;;5045915;28;20502;-66
2021/09/24 06:09:14;;;;;;;3.97;2.08;;;12.60;99.90;;;;;;5044903;28;20634;-69
2021/09/24 06:11:39;;;;;;;4.75;1.85;;;12.60;99.90;;;;;;5051090;28;20456;-69
2021/09/24 06:14:05;;;;;;;4.72;1.60;;;12.70;99.90;;;;;;5045500;28;20171;-67
2021/09/24 06:16:31;;;;;;;3.95;1.58;;;12.90;99.90;;;;;;5048442;28;20186;-66
2021/09/24 06:18:58;;;;;;;5.85;1.52;;;13.00;99.90;;;;;;5043187;28;20182;-66
2021/09/24 06:21:24;;;;;;;6.72;1.98;;;13.20;99.90;;;;;;5037286;28;20256;-69
2021/09/24 06:23:49;;;;;;;5.63;1.63;;;13.30;99.90;;;;;;5050586;28;20201;-67
2021/09/24 06:26:15;;;;;;;5.53;2.20;;;13.50;99.90;;;;;;5051838;28;20190;-70
2021/09/24 06:28:41;;;;;;;3.63;1.70;;;13.50;99.90;;;;;;5046935;28;20622;-67
2021/09/24 06:31:06;;;;;;;7.28;1.73;;;13.60;99.90;;;;;;5059150;28;20327;-67
2021/09/24 06:33:32;;;;;;;3.38;1.38;;;13.60;99.90;;;;;;5046326;28;20660;-66
2021/09/24 06:35:58;;;;;;;3.65;1.27;;;13.70;99.90;;;;;;5049906;28;20209;-65
2021/09/24 06:38:23;;;;;;;4.22;1.75;;;13.70;99.90;;;;;;5046955;28;20185;-66
2021/09/24 06:40:49;;;;;;;5.07;1.83;;;13.60;99.90;;;;;;5058874;28;20202;-69
2021/09/24 06:43:15;;;;;;;2.95;1.45;;;13.70;99.90;;;;;;5047938;28;20186;-68
2021/09/24 06:45:41;;;;;;;4.13;1.60;;;13.80;99.90;;;;;;5046976;28;20185;-71
2021/09/24 06:48:07;;;;;;;3.22;1.60;;;13.90;99.90;;;;;;5037001;28;20552;-69
2021/09/24 06:50:34;;;;;;;5.32;1.50;;;13.90;99.90;;;;;;5047999;28;20287;-67
2021/09/24 06:52:59;;;;;;;5.20;1.42;;;13.90;99.90;;;;;;5050323;28;20597;-68
2021/09/24 06:55:25;;;;;;;3.80;1.70;;;14.00;99.90;;;;;;5051668;28;20210;-68
2021/09/24 06:57:52;;;;;;;3.33;1.25;;;14.00;99.90;;;;;;5046974;28;20642;-68
2021/09/24 07:00:18;;;;;;;2.67;1.30;;;14.10;99.90;;;;;;5046481;28;20703;-69
2021/09/24 07:02:43;;;;;;;3.00;1.20;;;14.10;99.90;;;;;;5045955;28;20182;-70
2021/09/24 07:05:10;;;;;;;5.75;1.63;;;14.20;99.90;;;;;;5046761;28;20198;-68
2021/09/24 07:07:35;;;;;;;2.47;1.35;;;14.30;99.90;;;;;;5046988;28;20502;-69
2021/09/24 07:10:01;;;;;;;4.78;1.70;;;14.30;99.90;;;;;;5048770;28;20217;-67
2021/09/24 07:12:26;;;;;;;5.05;2.03;;;14.40;99.90;;;;;;5045684;28;20208;-69
2021/09/24 07:14:52;;;;;;;4.10;1.73;;;14.50;99.90;;;;;;5046638;28;20182;-68
2021/09/24 07:17:18;;;;;;;5.15;1.50;;;14.50;99.90;;;;;;5046193;28;20182;-69
2021/09/24 07:19:43;;;;;;;6.22;1.60;;;14.60;99.90;;;;;;5047128;28;20189;-70
2021/09/24 07:22:10;;;;;;;3.83;1.40;;;14.70;99.90;;;;;;5052465;28;20288;-71
2021/09/24 07:24:35;;;;;;;5.03;1.85;;;14.80;99.90;;;;;;5052304;28;20240;-69
2021/09/24 07:27:01;;;;;;;6.22;1.65;;;14.90;99.90;;;;;;5046506;28;20216;-66
2021/09/24 07:29:27;;;;;;;5.72;1.75;;;15.10;99.90;;;;;;5045946;28;20279;-68
2021/09/24 07:31:52;;;;;;;2.92;1.48;;;15.10;99.90;;;;;;5045190;28;20239;-67
2021/09/24 07:34:18;;;;;;;4.30;1.90;;;15.20;99.90;;;;;;5045769;28;20523;-69
2021/09/24 07:36:44;;;;;;;3.03;1.65;;;15.30;99.90;;;;;;5045956;28;20188;-68
2021/09/24 07:39:09;;;;;;;2.75;1.92;;;15.30;99.90;;;;;;5046753;28;20210;-70
2021/09/24 07:41:35;;;;;;;4.32;2.08;;;15.30;99.90;;;;;;5045431;28;20654;-67
2021/09/24 07:44:03;;;;;;;3.13;2.33;;;15.30;99.90;;;;;;5045578;28;20182;-68
2021/09/24 07:46:30;;;;;;;4.75;2.38;;;15.40;99.90;;;;;;5049603;28;20182;-66
2021/09/24 07:48:55;;;;;;;2.92;1.58;;;15.50;99.90;;;;;;5051760;28;20210;-69
2021/09/24 07:51:21;;;;;;;5.30;1.73;;;15.60;99.90;;;;;;5051769;28;20241;-67
2021/09/24 07:53:47;;;;;;;3.80;1.60;;;15.60;99.90;;;;;;5055740;28;20605;-67
2021/09/24 07:56:13;;;;;;;5.57;1.55;;;15.60;99.90;;;;;;5050051;28;20680;-65
2021/09/24 07:58:39;;;;;;;4.95;1.58;;;15.60;99.90;;;;;;5052040;28;20178;-68
2021/09/24 08:01:06;;;;;;;3.72;1.20;;;15.50;99.90;;;;;;5049742;28;20245;-70
2021/09/24 08:03:32;;;;;;;3.30;1.45;;;15.50;99.90;;;;;;5045218;28;20269;-68
2021/09/24 08:05:58;;;;;;;5.78;1.58;;;15.40;99.90;;;;;;5052348;28;20268;-72
2021/09/24 08:08:24;;;;;;;3.25;1.27;;;15.50;99.90;;;;;;5050156;28;20752;-70
2021/09/24 08:10:49;;;;;;;2.90;1.20;;;15.40;99.90;;;;;;5052538;28;20217;-70
2021/09/24 08:13:15;;;;;;;5.50;1.45;;;15.50;99.90;;;;;;5041759;28;20177;-68
2021/09/24 08:15:44;;;;;;;2.72;0.98;;;15.50;99.90;;;;;;5038348;28;20192;-68
2021/09/24 08:18:14;;;;;;;2.53;1.17;;;15.60;99.90;;;;;;5050590;28;20277;-72
2021/09/24 08:20:41;;;;;;;2.97;1.10;;;15.60;99.90;;;;;;5050751;28;20202;-70
2021/09/24 08:23:07;;;;;;;4.60;1.40;;;15.60;99.90;;;;;;5043074;28;20654;-66
2021/09/24 08:25:33;;;;;;;5.65;1.40;;;15.60;99.90;;;;;;5046433;28;20182;-68
2021/09/24 08:27:59;;;;;;;3.38;1.10;;;15.60;99.90;;;;;;5054154;28;20193;-70
2021/09/24 08:30:25;;;;;;;2.83;1.30;;;15.70;99.90;;;;;;5044010;28;20216;-67
2021/09/24 08:32:52;;;;;;;2.83;1.13;;;15.60;99.90;;;;;;5047304;28;20178;-71
2021/09/24 08:35:21;;;;;;;2.45;1.10;;;15.60;99.90;;;;;;5049092;28;20193;-70
2021/09/24 08:37:49;;;;;;;4.72;1.45;;;15.60;99.90;;;;;;5054768;28;20182;-69
2021/09/24 08:40:20;;;;;;;3.45;1.20;;;15.70;99.90;;;;;;5050881;28;20209;-71
2021/09/24 08:42:47;;;;;;;4.65;1.90;;;15.80;99.90;;;;;;5029133;28;20188;-68
2021/09/24 08:45:30;;;;;;;4.82;1.88;;;15.90;99.90;;;;;;5044390;28;20186;-69
2021/09/24 08:48:06;;;;;;;3.47;1.33;;;16.00;99.90;;;;;;5051362;28;20170;-65
2021/09/24 08:50:36;;;;;;;1.77;1.13;;;16.10;99.90;;;;;;5052045;28;20484;-68
2021/09/24 08:53:03;;;;;;;1.80;1.40;;;16.20;99.90;;;;;;5056810;28;20511;-67
2021/09/24 08:55:29;;;;;;;2.88;1.40;;;16.20;99.90;;;;;;5037389;28;20177;-69
2021/09/24 08:57:55;;;;;;;4.50;1.15;;;16.30;99.90;;;;;;5053150;28;20177;-69
2021/09/24 09:00:22;;;;;;;2.42;1.13;;;16.30;99.90;;;;;;5046758;28;20186;-70
2021/09/24 09:02:56;;;;;;;2.85;1.00;;;16.20;99.90;;;;;;5043784;28;20281;-67
2021/09/24 09:05:24;;;;;;;7.55;1.35;;;16.30;99.90;;;;;;5046869;28;20181;-66
2021/09/24 09:07:50;;;;;;;4.05;1.17;;;16.20;99.90;;;;;;5044673;28;20189;-68
2021/09/24 09:10:17;;;;;;;1.75;1.02;;;16.20;99.90;;;;;;5043981;28;20198;-69
2021/09/24 09:12:42;;;;;;;3.20;1.58;;;16.30;99.90;;;;;;5042966;28;20178;-69
2021/09/24 09:15:12;;;;;;;2.20;1.10;;;16.40;99.90;;;;;;5048130;28;20705;-68
2021/09/24 09:17:42;;;;;;;8.30;1.35;;;16.40;99.90;;;;;;5043730;28;20178;-71
2021/09/24 09:20:16;;;;;;;4.63;1.60;;;16.60;99.90;;;;;;5043462;28;20186;-68
2021/09/24 09:22:45;;;;;;;3.67;1.20;;;16.70;99.90;;;;;;5048952;28;20209;-68
2021/09/24 09:25:23;;;;;;;4.47;1.30;;;17.00;99.90;;;;;;5043419;28;20564;-66
2021/09/24 09:27:50;;;;;;;3.17;1.23;;;17.20;99.90;;;;;;5043690;28;20177;-70
2021/09/24 09:30:16;;;;;;;1.55;0.95;;;17.40;99.90;;;;;;5043036;28;20540;-69
2021/09/24 09:33:00;;;;;;;3.15;1.10;;;17.50;99.90;;;;;;5048316;28;20260;-68
2021/09/24 09:35:27;;;;;;;5.00;1.42;;;17.50;99.90;;;;;;5042835;28;20182;-69
2021/09/24 09:37:53;;;;;;;3.95;0.88;;;17.40;99.90;;;;;;5044426;28;20197;-71
2021/09/24 09:40:21;;;;;;;3.70;1.23;;;17.40;99.90;;;;;;5029737;28;20194;-68
2021/09/24 09:42:48;;;;;;;5.50;1.73;;;17.60;99.90;;;;;;5043976;28;20193;-70
2021/09/24 09:45:16;;;;;;;4.65;1.77;;;17.70;99.90;;;;;;5053720;28;20193;-69
2021/09/24 09:47:44;;;;;;;2.03;1.10;;;17.60;99.90;;;;;;5043306;28;20208;-69
2021/09/24 09:50:14;;;;;;;2.78;1.33;;;17.40;99.90;;;;;;5053488;28;20237;-71
2021/09/24 09:53:02;;;;;;;3.50;1.35;;;17.60;99.90;;;;;;5043376;28;20181;-68
2021/09/24 09:55:35;;;;;;;3.85;1.08;;;17.70;99.90;;;;;;5043600;28;20186;-70
2021/09/24 09:58:08;;;;;;;3.47;1.75;;;17.60;99.90;;;;;;5039471;28;20268;-72
2021/09/24 10:00:36;;;;;;;2.70;1.23;;;17.80;99.90;;;;;;5042977;28;20197;-67
2021/09/24 10:03:07;;;;;;;3.38;1.45;;;17.80;99.90;;;;;;5042449;28;20231;-69
2021/09/24 10:05:41;;;;;;;1.27;1.10;;;18.10;99.90;;;;;;5047156;28;20197;-67
2021/09/24 10:08:33;;;;;;;1.48;1.00;;;18.30;99.90;;;;;;5043598;28;20205;-70
2021/09/24 10:11:11;;;;;;;3.08;1.30;;;18.30;99.90;;;;;;5037705;28;20209;-68
2021/09/24 10:14:04;;;;;;;2.95;1.05;;;18.10;99.90;;;;;;5027191;28;20178;-68
2021/09/24 10:16:33;;;;;;;4.53;1.50;;;18.10;99.90;;;;;;5043178;28;20182;-69
2021/09/24 10:19:00;;;;;;;3.15;1.00;;;18.10;99.90;;;;;;5043201;28;20426;-69
2021/09/24 10:21:27;;;;;;;2.55;1.10;;;18.20;99.90;;;;;;5042654;28;20244;-70
2021/09/24 10:23:54;;;;;;;3.78;1.70;;;18.30;99.90;;;;;;5043954;28;20182;-69
2021/09/24 10:26:30;;;;;;;3.08;1.30;;;18.40;99.90;;;;;;5043266;28;20532;-69
2021/09/24 10:29:12;;;;;;;3.35;1.30;;;18.50;99.90;;;;;;5044793;28;20608;-70
2021/09/24 10:31:42;;;;;;;2.90;1.20;;;18.60;99.90;;;;;;5046955;28;20222;-71
2021/09/24 10:34:08;;;;;;;3.20;1.30;;;18.80;99.90;;;;;;5043055;28;20427;-70
2021/09/24 10:36:55;;;;;;;1.45;1.33;;;19.00;99.90;;;;;;5047578;28;20252;-70
2021/09/24 10:39:29;;;;;;;3.33;1.52;;;19.10;99.90;;;;;;5046371;28;20660;-69
2021/09/24 10:42:17;;;;;;;2.20;1.17;;;19.20;99.90;;;;;;5042324;28;20288;-69
2021/09/24 10:45:04;;;;;;;2.72;1.38;;;19.10;99.90;;;;;;5046420;28;20699;-69
2021/09/24 10:47:53;;;;;;;2.58;1.50;;;19.20;99.90;;;;;;5043123;28;20186;-68
2021/09/24 10:50:37;;;;;;;4.25;1.20;;;19.30;99.90;;;;;;5042865;28;20209;-70
2021/09/24 10:53:17;;;;;;;2.75;1.30;;;19.50;99.90;;;;;;5048111;28;20920;-71
2021/09/24 10:55:54;;;;;;;2.70;1.33;;;19.80;99.90;;;;;;5045742;28;20174;-71
2021/09/24 10:58:26;;;;;;;2.55;1.38;;;19.80;99.90;;;;;;5042925;28;20986;-69
2021/09/24 11:00:56;;;;;;;5.75;1.58;;;19.70;99.90;;;;;;5047701;28;20523;-69
2021/09/24 11:03:24;;;;;;;2.85;1.95;;;20.00;99.90;;;;;;5043080;28;20227;-71
2021/09/24 11:06:11;;;;;;;4.55;1.60;;;20.10;99.90;;;;;;5031913;28;20711;-69
2021/09/24 11:08:42;;;;;;;3.20;1.50;;;20.00;99.90;;;;;;5025305;28;20541;-70
2021/09/24 11:11:09;;;;;;;3.65;1.63;;;19.90;99.90;;;;;;5043447;28;20217;-71
2021/09/24 11:13:39;;;;;;;3.83;1.92;;;19.80;99.90;;;;;;5043397;28;20208;-69
2021/09/24 11:16:07;;;;;;;3.28;1.85;;;19.90;99.90;;;;;;5050334;28;20537;-69
2021/09/24 11:18:53;;;;;;;3.80;1.40;;;19.70;99.90;;;;;;5050590;28;20178;-70
2021/09/24 11:22:03;;;;;;;2.97;1.65;;;19.50;99.90;;;;;;5046641;28;20684;-70
2021/09/24 11:24:38;;;;;;;2.65;1.80;;;19.00;99.90;;;;;;5046043;28;20224;-70
2021/09/24 11:27:15;;;;;;;2.67;2.00;;;19.00;99.90;;;;;;5046261;28;20551;-67
2021/09/24 11:30:00;;;;;;;4.93;2.30;;;18.80;99.90;;;;;;5046137;28;20227;-65
2021/09/24 11:32:36;;;;;;;5.80;2.17;;;18.90;99.90;;;;;;5033845;28;20213;-71
2021/09/24 11:35:02;;;;;;;4.80;2.50;;;19.00;99.90;;;;;;5046110;28;20578;-71
2021/09/24 11:37:30;;;;;;;5.72;2.65;;;19.00;99.90;;;;;;5045646;28;20182;-69
2021/09/24 11:40:08;;;;;;;2.58;2.38;;;19.00;99.90;;;;;;5057376;28;20174;-69
2021/09/24 11:42:47;;;;;;;3.65;2.50;;;18.80;99.90;;;;;;5045899;28;20182;-68
2021/09/24 11:45:22;;;;;;;3.72;2.67;;;18.50;99.90;;;;;;5045663;28;20214;-69
2021/09/24 11:48:09;;;;;;;3.35;2.75;;;18.50;99.90;;;;;;5045867;28;20294;-72
2021/09/24 11:50:36;;;;;;;4.25;3.05;;;18.50;99.90;;;;;;5047495;28;20595;-71
2021/09/24 11:53:04;;;;;;;4.55;2.97;;;18.40;99.90;;;;;;5044613;28;20333;-70
2021/09/24 11:55:32;;;;;;;5.93;3.45;;;18.40;99.90;;;;;;5045880;28;20268;-71
2021/09/24 11:58:06;;;;;;;4.18;3.67;;;18.30;99.90;;;;;;5053357;28;20173;-68
2021/09/24 12:00:40;;;;;;;7.05;4.03;;;18.30;99.90;;;;;;5050970;28;20204;-70
2021/09/24 12:03:11;;;;;;;4.72;3.80;;;18.30;99.90;;;;;;5048924;28;20177;-69
2021/09/24 12:05:37;;;;;;;6.22;4.63;;;18.20;99.90;;;;;;5045548;28;20273;-70
2021/09/24 12:08:21;;;;;;;5.85;4.22;;;18.20;99.90;;;;;;5049183;28;20448;-69
2021/09/24 12:10:46;;;;;;;6.35;4.45;;;18.20;99.90;;;;;;5045257;28;20206;-67
2021/09/24 12:13:15;;;;;;;7.57;4.75;;;18.20;99.90;;;;;;5047377;28;20169;-68
2021/09/24 12:15:59;;;;;;;8.35;5.18;;;18.20;99.90;;;;;;5049054;28;20252;-68
2021/09/24 12:18:43;;;;;;;7.07;5.00;;;18.10;99.90;;;;;;5045237;28;20185;-69
2021/09/24 12:21:09;;;;;;;6.53;4.90;;;18.10;99.90;;;;;;5046363;28;20274;-69
2021/09/24 12:23:35;;;;;;;7.05;5.28;;;18.00;99.90;;;;;;5054034;28;20189;-67
2021/09/24 12:26:03;;;;;;;7.72;5.60;;;18.00;99.90;;;;;;5046118;28;20186;-69
2021/09/24 12:28:29;;;;;;;7.93;5.15;;;17.90;99.90;;;;;;5044723;28;20258;-69
2021/09/24 12:30:55;;;;;;;5.88;5.28;;;18.00;99.90;;;;;;5046103;28;20222;-68
2021/09/24 12:33:22;;;;;;;6.57;5.00;;;17.90;99.90;;;;;;5040587;28;20208;-69
2021/09/24 12:36:14;;;;;;;7.78;5.47;;;17.90;99.90;;;;;;5046786;28;20201;-68
2021/09/24 12:38:40;;;;;;;7.68;5.20;;;18.00;99.90;;;;;;5046408;28;20267;-69
2021/09/24 12:41:15;;;;;;;7.80;5.10;;;17.90;99.90;;;;;;5051196;28;20197;-69
2021/09/24 12:43:43;;;;;;;7.78;5.13;;;18.00;99.90;;;;;;5054534;28;20186;-68
2021/09/24 12:46:11;;;;;;;7.40;5.38;;;18.00;99.90;;;;;;5026640;28;20208;-69
2021/09/24 12:48:40;;;;;;;8.38;5.72;;;18.10;99.90;;;;;;5047493;28;20237;-70
2021/09/24 12:51:07;;;;;;;7.25;4.75;;;18.10;99.90;;;;;;5051735;28;20299;-69